Time;durP1;ratioP1;P1;durP2;ratioP2;P2;SDS_P1;SDS_P2;PMS_P1;PMS_P2;Temp;Humidity;BMP_temperature;BMP_pressure;BME280_temperature;BME280_humidity;BME280_pressure;Samples;Min_cycle;Max_cycle;Signal;HPM_P1;HPM_P2
2021/12/14 00:02:15;;;;;;;;;;;;;;;8.15;88.50;100927.38;6189766;23;19951;-82
2021/12/14 00:04:41;;;;;;;;;;;;;;;8.13;88.25;100925.78;6189180;23;19908;-82
2021/12/14 00:07:08;;;;;;;;;;;;;;;8.14;88.02;100919.50;6166076;23;19915;-83
2021/12/14 00:09:36;;;;;;;;;;;;;;;8.13;88.26;100920.44;6188965;23;19915;-82
2021/12/14 00:17:15;;;;;;;;;;;;;;;8.15;87.85;100919.38;6166170;23;19980;-83
2021/12/14 00:19:40;;;;;;;;;;;;;;;8.13;88.02;100923.97;6166185;23;19913;-83
2021/12/14 00:22:19;;;;;;;;;;;;;;;8.15;88.16;100926.53;6164623;23;19919;-82
2021/12/14 00:24:45;;;;;;;;;;;;;;;8.14;87.66;100933.66;6164219;23;19947;-82
2021/12/14 00:27:11;;;;;;;;;;;;;;;8.14;87.62;100933.66;6164655;23;19916;-82
2021/12/14 00:29:38;;;;;;;;;;;;;;;8.12;87.96;100932.06;6139706;23;19944;-82
2021/12/14 00:32:05;;;;;;;;;;;;;;;8.13;87.57;100933.75;6164425;23;19919;-83
2021/12/14 00:34:37;;;;;;;;;;;;;;;8.13;87.84;100925.78;6163906;23;19916;-82
2021/12/14 00:37:04;;;;;;;;;;;;;;;8.14;87.74;100923.00;6139834;23;20802;-83
2021/12/14 00:39:29;;;;;;;;;;;;;;;8.13;87.78;100920.44;6139490;23;19905;-82
2021/12/14 00:41:54;;;;;;;;;;;;;;;8.15;87.74;100915.88;6164097;23;19916;-82
2021/12/14 00:44:21;;;;;;;;;;;;;;;8.13;88.00;100907.13;6164186;23;19904;-82
2021/12/14 00:46:46;;;;;;;;;;;;;;;8.14;88.18;100895.50;6164408;23;19909;-83
2021/12/14 00:49:12;;;;;;;;;;;;;;;8.14;88.17;100892.84;6164214;23;19915;-83
2021/12/14 00:51:37;;;;;;;;;;;;;;;8.14;88.07;100900.84;6165487;23;19908;-82
2021/12/14 00:54:04;;;;;;;;;;;;;;;8.12;88.17;100922.25;6139220;23;19913;-83
2021/12/14 00:56:29;;;;;;;;;;;;;;;8.13;88.07;100926.63;6139364;23;19912;-83
2021/12/14 00:58:54;;;;;;;;;;;;;;;8.14;88.28;100916.81;6165586;23;19911;-83
2021/12/14 01:01:28;;;;;;;;;;;;;;;8.14;88.29;100914.16;6139432;23;19999;-82
2021/12/14 01:03:55;;;;;;;;;;;;;;;8.14;88.49;100900.84;6139196;23;19913;-83
2021/12/14 01:06:21;;;;;;;;;;;;;;;8.12;88.41;100900.94;6164013;23;19943;-82
2021/12/14 01:08:47;;;;;;;;;;;;;;;8.13;88.54;100902.66;6163836;23;19915;-83
2021/12/14 01:11:29;;;;;;;;;;;;;;;8.11;88.56;100891.25;6139448;23;19924;-83
2021/12/14 01:14:00;;;;;;;;;;;;;;;8.12;88.30;100902.75;6139041;23;19910;-82
2021/12/14 01:16:34;;;;;;;;;;;;;;;8.12;88.43;100913.41;6146457;23;19987;-83
2021/12/14 01:19:14;;;;;;;;;;;;;;;8.13;88.67;100926.63;6163870;23;19975;-83
2021/12/14 01:24:52;;;;;;;;;;;;;;;8.11;88.61;100922.34;6165180;23;19956;-83
2021/12/14 01:27:12;;;;;;;;;;;;;;;8.10;88.48;100926.81;6181434;23;20340;-82
2021/12/14 01:29:38;;;;;;;;;;;;;;;8.11;88.60;100925.88;6163844;23;19961;-82
2021/12/14 01:32:04;;;;;;;;;;;;;;;8.10;88.72;100937.47;6188898;23;19986;-83
2021/12/14 01:34:37;;;;;;;;;;;;;;;8.09;88.55;100935.78;6188514;23;19912;-82
2021/12/14 01:37:06;;;;;;;;;;;;;;;8.06;88.66;100927.13;6163734;23;19908;-83
2021/12/14 01:42:08;;;;;;;;;;;;;;;8.06;88.86;100930.63;6188636;23;20010;-82
2021/12/14 01:44:40;;;;;;;;;;;;;;;8.06;88.44;100927.13;6163375;23;19986;-82
2021/12/14 01:47:07;;;;;;;;;;;;;;;8.07;88.55;100932.34;6164097;23;19975;-83
2021/12/14 01:49:32;;;;;;;;;;;;;;;8.08;88.54;100935.88;6188349;23;19932;-82
2021/12/14 01:51:58;;;;;;;;;;;;;;;8.08;88.71;100927.88;6188643;23;19908;-82
2021/12/14 01:54:26;;;;;;;;;;;;;;;8.07;88.60;100924.34;6188032;23;19916;-83
2021/12/14 01:56:51;;;;;;;;;;;;;;;8.08;88.69;100922.56;6188883;23;19908;-82
2021/12/14 01:59:22;;;;;;;;;;;;;;;8.08;88.80;100915.41;6188181;23;19935;-83
2021/12/14 02:01:55;;;;;;;;;;;;;;;8.08;88.91;100914.56;6187170;23;19904;-82
2021/12/14 02:04:22;;;;;;;;;;;;;;;8.05;88.89;100912.09;6163457;23;20297;-83
2021/12/14 02:06:54;;;;;;;;;;;;;;;8.03;89.06;100904.16;6163815;23;19908;-82
2021/12/14 02:09:19;;;;;;;;;;;;;;;8.05;89.06;100917.41;6163502;23;19924;-82
2021/12/14 02:11:46;;;;;;;;;;;;;;;8.04;89.18;100916.56;6188600;23;19916;-83
2021/12/14 02:14:12;;;;;;;;;;;;;;;8.03;89.34;100914.81;6188376;23;19908;-83
2021/12/14 02:16:37;;;;;;;;;;;;;;;8.05;89.32;100920.09;6163944;23;19908;-82
2021/12/14 02:19:04;;;;;;;;;;;;;;;8.07;89.34;100916.38;6190586;23;19913;-83
2021/12/14 02:21:30;;;;;;;;;;;;;;;8.06;89.46;100921.78;6190292;23;19939;-82
2021/12/14 02:23:55;;;;;;;;;;;;;;;8.05;89.44;100909.44;6190125;23;19908;-83
2021/12/14 02:26:22;;;;;;;;;;;;;;;8.06;89.51;100908.47;6190292;23;19912;-82
2021/12/14 02:28:48;;;;;;;;;;;;;;;8.04;89.48;100902.38;6165283;23;19915;-82
2021/12/14 02:31:14;;;;;;;;;;;;;;;8.05;89.52;100899.63;6190817;23;19904;-83
2021/12/14 02:33:40;;;;;;;;;;;;;;;8.04;89.73;100889.94;6165094;23;19909;-82
2021/12/14 02:36:06;;;;;;;;;;;;;;;8.07;89.80;100880.88;6190374;23;20002;-82
2021/12/14 02:38:32;;;;;;;;;;;;;;;8.06;89.55;100852.53;6189997;23;19983;-82
2021/12/14 02:41:01;;;;;;;;;;;;;;;8.06;89.64;100855.19;6165446;23;19916;-83
2021/12/14 02:43:45;;;;;;;;;;;;;;;8.05;89.79;100843.69;6189785;23;19908;-82
2021/12/14 02:46:11;;;;;;;;;;;;;;;8.05;90.12;100834.84;6165403;23;19912;-83
2021/12/14 02:48:39;;;;;;;;;;;;;;;8.04;90.08;100836.66;6165439;23;19916;-84
2021/12/14 02:51:24;;;;;;;;;;;;;;;8.04;90.17;100859.75;6164879;23;19912;-83
2021/12/14 02:53:51;;;;;;;;;;;;;;;8.05;90.37;100848.16;6166116;23;20408;-82
2021/12/14 02:56:17;;;;;;;;;;;;;;;8.05;90.40;100822.38;6165101;23;19909;-82
2021/12/14 02:58:43;;;;;;;;;;;;;;;8.05;90.14;100824.19;6190295;23;19912;-83
2021/12/14 03:01:09;;;;;;;;;;;;;;;8.04;90.26;100847.31;6189939;23;19913;-82
2021/12/14 03:03:35;;;;;;;;;;;;;;;8.04;90.40;100851.75;6164261;23;19905;-82
2021/12/14 03:06:00;;;;;;;;;;;;;;;8.03;90.38;100855.38;6189475;23;19924;-82
2021/12/14 03:08:26;;;;;;;;;;;;;;;8.02;90.65;100832.34;6190389;23;19915;-82
2021/12/14 03:11:10;;;;;;;;;;;;;;;8.03;90.69;100821.59;6190330;23;19915;-82
2021/12/14 03:13:35;;;;;;;;;;;;;;;8.01;90.69;100818.19;6165263;23;19913;-83
2021/12/14 03:16:02;;;;;;;;;;;;;;;8.03;90.62;100832.25;6164608;23;19913;-83
2021/12/14 03:18:29;;;;;;;;;;;;;;;8.03;91.07;100848.22;6189816;23;19909;-83
2021/12/14 03:21:02;;;;;;;;;;;;;;;8.02;91.00;100846.53;6164927;23;19905;-83
2021/12/14 03:23:30;;;;;;;;;;;;;;;8.03;90.83;100839.38;6164661;23;19936;-83
2021/12/14 03:25:56;;;;;;;;;;;;;;;8.02;91.03;100832.34;6164910;23;19944;-82
2021/12/14 03:28:22;;;;;;;;;;;;;;;8.01;91.24;100841.31;6164651;23;19943;-83
2021/12/14 03:30:47;;;;;;;;;;;;;;;8.02;91.02;100841.19;6164907;23;19908;-83
2021/12/14 03:33:17;;;;;;;;;;;;;;;8.03;91.29;100845.56;6164966;23;19912;-82
2021/12/14 03:36:16;;;;;;;;;;;;;;;8.02;91.04;100846.53;6164688;23;19919;-83
2021/12/14 03:38:48;;;;;;;;;;;;;;;8.02;91.50;100840.34;6164598;23;19908;-82
2021/12/14 03:41:15;;;;;;;;;;;;;;;8.02;91.59;100841.19;6189395;23;19908;-82
2021/12/14 03:43:41;;;;;;;;;;;;;;;8.02;91.41;100832.34;6166285;23;19909;-83
2021/12/14 03:46:07;;;;;;;;;;;;;;;8.00;91.36;100840.44;6166254;23;19915;-82
2021/12/14 03:48:33;;;;;;;;;;;;;;;8.00;91.78;100836.94;6164534;23;19908;-82
2021/12/14 03:50:59;;;;;;;;;;;;;;;8.00;91.98;100840.44;6166309;23;19928;-83
2021/12/14 03:53:24;;;;;;;;;;;;;;;7.98;92.06;100829.03;6189494;23;19932;-83
2021/12/14 03:55:51;;;;;;;;;;;;;;;8.00;92.12;100818.28;6189600;23;19915;-83
2021/12/14 03:58:18;;;;;;;;;;;;;;;7.98;92.00;100822.84;6189965;23;20224;-83
2021/12/14 04:00:47;;;;;;;;;;;;;;;7.98;92.39;100820.19;6189641;23;19908;-82
2021/12/14 04:03:15;;;;;;;;;;;;;;;7.98;92.25;100825.53;6189245;23;19980;-82
2021/12/14 04:05:41;;;;;;;;;;;;;;;7.99;92.45;100816.56;6164460;23;19909;-83
2021/12/14 04:08:06;;;;;;;;;;;;;;;8.00;92.66;100810.28;6164585;23;19928;-83
2021/12/14 04:10:33;;;;;;;;;;;;;;;7.97;92.76;100815.81;6164184;23;19904;-82
2021/12/14 04:12:58;;;;;;;;;;;;;;;7.96;92.24;100806.97;6164508;23;19996;-83
2021/12/14 04:15:24;;;;;;;;;;;;;;;7.97;92.34;100821.16;6189080;23;19909;-82
2021/12/14 04:17:49;;;;;;;;;;;;;;;7.98;92.46;100825.53;6164204;23;19920;-83
2021/12/14 04:20:16;;;;;;;;;;;;;;;7.98;92.43;100830.84;6166077;23;19954;-81
2021/12/14 04:22:48;;;;;;;;;;;;;;;7.98;92.41;100830.84;6164216;23;19915;-84
2021/12/14 04:25:13;;;;;;;;;;;;;;;7.98;92.53;100841.50;6188059;23;19956;-82
2021/12/14 04:27:39;;;;;;;;;;;;;;;7.97;92.36;100839.78;6189649;23;19909;-82
2021/12/14 04:30:06;;;;;;;;;;;;;;;7.98;92.96;100844.16;6164443;23;20307;-81
2021/12/14 04:32:32;;;;;;;;;;;;;;;7.99;92.52;100845.88;6188897;23;19968;-82
2021/12/14 04:34:57;;;;;;;;;;;;;;;7.98;92.69;100842.34;6189056;23;19911;-82
2021/12/14 04:37:22;;;;;;;;;;;;;;;7.95;92.45;100837.22;6164099;23;19909;-83
2021/12/14 04:39:57;;;;;;;;;;;;;;;7.95;92.61;100842.56;6188915;23;19952;-83
2021/12/14 04:53:20;;;;;;;;;;;;;;;7.94;92.64;100886.13;6185687;23;20359;-82
2021/12/14 04:55:45;;;;;;;;;;;;;;;7.93;92.42;100887.06;6165747;23;19904;-82
2021/12/14 04:58:11;;;;;;;;;;;;;;;7.93;92.95;100889.72;6164049;23;19905;-82
2021/12/14 05:00:40;;;;;;;;;;;;;;;7.92;92.51;100889.84;6188714;23;19928;-82
2021/12/14 05:03:21;;;;;;;;;;;;;;;7.89;92.62;100894.41;6164011;23;19908;-82
2021/12/14 05:05:50;;;;;;;;;;;;;;;7.92;92.54;100889.84;6164011;23;19991;-82
2021/12/14 05:10:53;;;;;;;;;;;;;;;7.92;92.96;100876.53;6187381;23;20014;-82
2021/12/14 05:13:25;;;;;;;;;;;;;;;7.93;92.75;100878.22;6163888;23;19904;-82
2021/12/14 05:15:50;;;;;;;;;;;;;;;7.93;92.74;100875.56;6163281;23;19923;-81
2021/12/14 05:18:15;;;;;;;;;;;;;;;7.94;92.64;100879.94;6164095;23;19905;-82
2021/12/14 05:20:41;;;;;;;;;;;;;;;7.93;92.52;100875.56;6164001;23;19904;-82
2021/12/14 05:23:06;;;;;;;;;;;;;;;7.91;92.30;100878.31;6164097;23;20482;-82
2021/12/14 05:25:32;;;;;;;;;;;;;;;7.91;92.34;100883.66;6163576;23;19908;-83
2021/12/14 05:27:58;;;;;;;;;;;;;;;7.91;92.43;100875.66;6188897;23;19915;-82
2021/12/14 05:30:28;;;;;;;;;;;;;;;7.90;92.37;100865.97;6188754;23;19935;-82
2021/12/14 05:33:04;;;;;;;;;;;;;;;7.87;91.91;100866.16;6188834;23;19908;-82
2021/12/14 05:35:30;;;;;;;;;;;;;;;7.88;91.96;100873.19;6163371;23;19908;-83
2021/12/14 05:37:56;;;;;;;;;;;;;;;7.87;92.00;100880.34;6188568;23;19911;-81
2021/12/14 05:40:40;;;;;;;;;;;;;;;7.86;91.92;100872.44;6163734;23;19917;-82
2021/12/14 05:43:24;;;;;;;;;;;;;;;7.84;92.26;100877.00;6185802;23;19926;-82
2021/12/14 05:45:52;;;;;;;;;;;;;;;7.87;92.36;100882.13;6188696;23;19956;-83
2021/12/14 05:48:22;;;;;;;;;;;;;;;7.83;91.95;100870.84;6163739;23;19912;-83
2021/12/14 05:50:50;;;;;;;;;;;;;;;7.81;91.74;100867.41;6188575;23;19914;-82
2021/12/14 05:53:34;;;;;;;;;;;;;;;7.78;91.59;100866.75;6188340;23;19908;-83
2021/12/14 05:56:01;;;;;;;;;;;;;;;7.78;91.61;100864.94;6163595;23;20228;-82
2021/12/14 05:58:26;;;;;;;;;;;;;;;7.81;91.84;100872.75;6188099;23;20000;-82
2021/12/14 06:00:58;;;;;;;;;;;;;;;7.82;91.59;100869.13;6187853;23;19908;-83
2021/12/14 06:03:26;;;;;;;;;;;;;;;7.79;91.67;100864.00;6188332;23;19914;-83
2021/12/14 06:05:52;;;;;;;;;;;;;;;7.82;91.45;100858.47;6188147;23;19904;-82
2021/12/14 06:08:18;;;;;;;;;;;;;;;7.83;91.47;100859.31;6163601;23;20014;-83
2021/12/14 06:10:43;;;;;;;;;;;;;;;7.83;91.43;100852.19;6188532;23;19912;-82
2021/12/14 06:13:08;;;;;;;;;;;;;;;7.84;91.29;100855.72;6165003;23;19976;-81
2021/12/14 06:15:34;;;;;;;;;;;;;;;7.82;91.18;100855.81;6162671;23;19956;-82
2021/12/14 06:17:59;;;;;;;;;;;;;;;7.83;91.08;100854.84;6163067;23;19916;-82
2021/12/14 06:20:25;;;;;;;;;;;;;;;7.80;91.26;100855.06;6138184;23;19909;-83
2021/12/14 06:22:54;;;;;;;;;;;;;;;7.79;91.04;100853.34;6138797;23;19916;-87
2021/12/14 06:25:24;;;;;;;;;;;;;;;7.81;91.11;100858.56;6138247;23;19960;-87
2021/12/14 06:27:49;;;;;;;;;;;;;;;7.81;91.09;100862.09;6138875;23;20003;-87
2021/12/14 06:30:19;;;;;;;;;;;;;;;7.82;90.79;100868.28;6138472;23;19916;-87
2021/12/14 06:32:46;;;;;;;;;;;;;;;7.83;91.18;100869.97;6138922;23;19913;-86
2021/12/14 06:35:16;;;;;;;;;;;;;;;7.80;90.90;100870.19;6138118;23;19915;-87
2021/12/14 06:37:55;;;;;;;;;;;;;;;7.82;90.80;100870.94;6138574;23;19947;-86
2021/12/14 06:40:27;;;;;;;;;;;;;;;7.81;90.68;100888.72;6138662;23;19915;-85
2021/12/14 06:42:57;;;;;;;;;;;;;;;7.82;90.59;100887.75;6138894;23;19909;-87
2021/12/14 06:45:23;;;;;;;;;;;;;;;7.83;90.64;100892.13;6163456;23;19909;-85
2021/12/14 06:47:49;;;;;;;;;;;;;;;7.84;90.64;100891.19;6138897;23;19904;-85
2021/12/14 06:50:17;;;;;;;;;;;;;;;7.87;90.55;100892.78;6138585;23;19909;-86
2021/12/14 06:52:42;;;;;;;;;;;;;;;7.87;90.77;100893.66;6163256;23;20015;-85
2021/12/14 06:55:18;;;;;;;;;;;;;;;7.87;90.74;100898.97;6162578;23;19909;-85
2021/12/14 06:57:43;;;;;;;;;;;;;;;7.88;90.39;100900.69;6138574;23;19919;-85
2021/12/14 07:00:09;;;;;;;;;;;;;;;7.88;90.38;100899.81;6163556;23;19917;-85
2021/12/14 07:02:34;;;;;;;;;;;;;;;7.85;90.50;100895.56;6163119;23;19911;-85
2021/12/14 07:04:59;;;;;;;;;;;;;;;7.87;90.29;100900.78;6139887;23;19915;-85
2021/12/14 07:07:25;;;;;;;;;;;;;;;7.88;90.53;100900.69;6140326;23;19904;-86
2021/12/14 07:09:52;;;;;;;;;;;;;;;7.88;90.50;100897.16;6140395;23;19908;-86
2021/12/14 07:12:28;;;;;;;;;;;;;;;7.86;90.06;100904.41;6140411;23;19932;-86
2021/12/14 07:14:53;;;;;;;;;;;;;;;7.86;90.20;100899.94;6140221;23;19920;-86
2021/12/14 07:17:20;;;;;;;;;;;;;;;7.89;90.11;100901.53;6157137;23;19912;-86
2021/12/14 07:19:52;;;;;;;;;;;;;;;7.86;90.04;100897.25;6164472;23;19909;-86
2021/12/14 07:22:25;;;;;;;;;;;;;;;7.88;90.08;100899.81;6188833;23;19914;-86
2021/12/14 07:24:59;;;;;;;;;;;;;;;7.87;90.07;100906.97;6164621;23;19952;-86
2021/12/14 07:27:26;;;;;;;;;;;;;;;7.88;90.00;100906.00;6164875;23;19905;-86
2021/12/14 07:29:51;;;;;;;;;;;;;;;7.89;90.26;100914.84;6164991;23;19908;-86
2021/12/14 07:32:36;;;;;;;;;;;;;;;7.88;90.06;100927.31;6164732;23;19912;-86
2021/12/14 07:35:24;;;;;;;;;;;;;;;7.87;89.91;100917.63;6164478;23;19932;-86
2021/12/14 07:37:49;;;;;;;;;;;;;;;7.85;89.97;100924.84;6166469;23;19963;-86
2021/12/14 07:40:15;;;;;;;;;;;;;;;7.87;89.65;100932.72;6189924;23;19975;-86
2021/12/14 07:42:40;;;;;;;;;;;;;;;7.88;89.94;100942.44;6164586;23;19908;-86
2021/12/14 07:45:06;;;;;;;;;;;;;;;7.89;89.91;100945.00;6164435;23;19909;-86
2021/12/14 07:47:31;;;;;;;;;;;;;;;7.90;90.14;100949.38;6163693;23;19915;-86
2021/12/14 07:49:57;;;;;;;;;;;;;;;7.93;89.64;100950.13;6188487;23;19905;-86
2021/12/14 07:52:24;;;;;;;;;;;;;;;7.93;89.72;100963.44;6163230;23;19908;-86
2021/12/14 07:54:51;;;;;;;;;;;;;;;7.87;89.83;100956.69;6186316;23;19911;-86
2021/12/14 07:57:23;;;;;;;;;;;;;;;7.84;89.73;100964.88;6158850;23;19916;-86
2021/12/14 07:59:49;;;;;;;;;;;;;;;7.85;89.79;100977.25;6158938;23;19909;-86
2021/12/14 08:02:19;;;;;;;;;;;;;;;7.87;89.54;100978.84;6159271;23;19908;-86
2021/12/14 08:04:47;;;;;;;;;;;;;;;7.86;89.68;100976.28;6159703;23;19958;-86
2021/12/14 08:07:28;;;;;;;;;;;;;;;7.85;89.58;100975.44;6160669;23;19939;-86
2021/12/14 08:09:54;;;;;;;;;;;;;;;7.86;89.84;100979.81;6159855;23;19920;-86
2021/12/14 08:12:32;;;;;;;;;;;;;;;7.84;89.48;100992.38;6159593;23;19905;-86
2021/12/14 08:15:02;;;;;;;;;;;;;;;7.86;89.51;100985.13;6160183;23;19932;-86
2021/12/14 08:17:28;;;;;;;;;;;;;;;7.86;89.62;100989.59;6159993;23;19913;-86
2021/12/14 08:19:53;;;;;;;;;;;;;;;7.86;89.60;101001.13;6160006;23;19912;-86
2021/12/14 08:22:32;;;;;;;;;;;;;;;7.85;89.63;100998.53;6159706;23;19916;-86
2021/12/14 08:24:58;;;;;;;;;;;;;;;7.87;89.67;101002.81;6159547;23;19909;-86
2021/12/14 08:27:24;;;;;;;;;;;;;;;7.89;90.05;101003.59;6160513;23;19940;-85
2021/12/14 08:29:51;;;;;;;;;;;;;;;7.90;90.02;100997.31;6159937;23;19909;-86
2021/12/14 08:32:20;;;;;;;;;;;;;;;7.87;90.02;100994.84;6160375;23;19919;-86
2021/12/14 08:34:46;;;;;;;;;;;;;;;7.87;89.79;100989.50;6159817;23;19908;-86
2021/12/14 08:37:13;;;;;;;;;;;;;;;7.87;89.97;100996.66;6158234;23;19975;-86
2021/12/14 08:39:43;;;;;;;;;;;;;;;7.90;89.64;100999.13;6159493;23;19911;-85
2021/12/14 08:42:11;;;;;;;;;;;;;;;7.92;89.91;101004.34;6183898;23;19915;-85
2021/12/14 08:44:39;;;;;;;;;;;;;;;7.89;89.89;101003.59;6159858;23;19908;-85
2021/12/14 08:47:14;;;;;;;;;;;;;;;7.89;89.71;101005.41;6159937;23;19909;-85
2021/12/14 08:49:40;;;;;;;;;;;;;;;7.89;89.54;101002.72;6159694;23;20041;-85
2021/12/14 08:52:05;;;;;;;;;;;;;;;7.89;90.24;101006.25;6159804;23;19913;-85
2021/12/14 08:54:31;;;;;;;;;;;;;;;7.89;89.64;101003.59;6160369;23;19936;-85
2021/12/14 08:57:08;;;;;;;;;;;;;;;7.89;89.73;101005.41;6161033;23;19909;-85
2021/12/14 08:59:37;;;;;;;;;;;;;;;7.87;89.52;100999.31;6185191;23;19935;-85
2021/12/14 09:02:03;;;;;;;;;;;;;;;7.87;89.65;101008.16;6159976;23;19909;-85
2021/12/14 09:04:31;;;;;;;;;;;;;;;7.88;89.62;101006.34;6159715;23;19940;-85
2021/12/14 09:06:58;;;;;;;;;;;;;;;7.87;89.77;101005.50;6159575;23;19909;-85
2021/12/14 09:09:24;;;;;;;;;;;;;;;7.88;89.88;101007.19;6184932;23;19912;-85
2021/12/14 09:12:09;;;;;;;;;;;;;;;7.89;89.63;101002.72;6160749;23;19914;-85
2021/12/14 09:14:34;;;;;;;;;;;;;;;7.87;89.33;100993.97;6160174;23;19908;-86
2021/12/14 09:17:00;;;;;;;;;;;;;;;7.92;89.43;100997.22;6159979;23;20232;-86
2021/12/14 09:19:26;;;;;;;;;;;;;;;7.94;89.54;100997.97;6159425;23;19909;-86
2021/12/14 09:21:52;;;;;;;;;;;;;;;7.94;89.62;100983.81;6159370;23;19909;-86
2021/12/14 09:24:19;;;;;;;;;;;;;;;7.95;89.44;100994.34;6158219;23;20003;-86
2021/12/14 09:26:46;;;;;;;;;;;;;;;7.94;89.73;101003.31;6159768;23;19916;-85
2021/12/14 09:29:13;;;;;;;;;;;;;;;7.95;89.56;101004.16;6160159;23;19951;-85
2021/12/14 09:31:39;;;;;;;;;;;;;;;7.95;89.40;101006.81;6160496;23;19932;-85
2021/12/14 09:34:05;;;;;;;;;;;;;;;7.98;89.35;101006.63;6159466;23;19951;-85
2021/12/14 09:36:31;;;;;;;;;;;;;;;7.98;89.36;101002.16;6159840;23;19928;-85
2021/12/14 09:38:58;;;;;;;;;;;;;;;7.98;89.60;101006.63;6159820;23;19913;-85
2021/12/14 09:41:26;;;;;;;;;;;;;;;7.98;89.33;101010.16;6160409;23;19960;-85
2021/12/14 09:43:52;;;;;;;;;;;;;;;7.99;89.59;101019.00;6159996;23;19917;-85
2021/12/14 09:46:17;;;;;;;;;;;;;;;7.99;89.46;101011.00;6161840;23;19909;-85
2021/12/14 09:48:54;;;;;;;;;;;;;;;8.00;89.67;101013.56;6161823;23;19912;-85
2021/12/14 09:51:36;;;;;;;;;;;;;;;8.00;89.63;101023.38;6161131;23;19947;-86
2021/12/14 09:54:03;;;;;;;;;;;;;;;8.01;89.78;101020.59;6160706;23;19948;-85
2021/12/14 09:56:32;;;;;;;;;;;;;;;8.03;89.48;101020.50;6161944;23;19908;-85
2021/12/14 09:58:59;;;;;;;;;;;;;;;8.02;89.62;101008.16;6161351;23;19909;-85
2021/12/14 10:01:29;;;;;;;;;;;;;;;8.00;89.61;101015.38;6160463;23;20301;-85
2021/12/14 10:03:56;;;;;;;;;;;;;;;8.02;89.57;101008.16;6160705;23;19956;-85
2021/12/14 10:06:24;;;;;;;;;;;;;;;8.01;89.74;101012.63;6160585;23;19908;-85
2021/12/14 10:08:52;;;;;;;;;;;;;;;8.01;89.53;101017.94;6160619;23;19908;-85
2021/12/14 10:11:26;;;;;;;;;;;;;;;8.01;89.53;101017.94;6161367;23;19931;-86
2021/12/14 10:13:52;;;;;;;;;;;;;;;8.02;89.91;101013.47;6161343;23;19908;-86
2021/12/14 10:16:17;;;;;;;;;;;;;;;8.02;89.55;101016.13;6161306;23;19920;-86
2021/12/14 10:18:48;;;;;;;;;;;;;;;8.02;89.89;101010.81;6186270;23;19912;-85
2021/12/14 10:21:20;;;;;;;;;;;;;;;8.02;89.60;101017.00;6160729;23;19920;-86
2021/12/14 10:23:46;;;;;;;;;;;;;;;8.04;90.03;101015.13;6162824;23;19909;-85
2021/12/14 10:26:11;;;;;;;;;;;;;;;8.04;89.83;101023.13;6161697;23;19915;-85
2021/12/14 10:28:37;;;;;;;;;;;;;;;8.05;90.00;101019.50;6161487;23;19908;-86
2021/12/14 10:31:05;;;;;;;;;;;;;;;8.08;90.02;101021.09;6162186;23;19951;-85
2021/12/14 10:33:32;;;;;;;;;;;;;;;8.05;89.47;101016.84;6161281;23;19908;-85
2021/12/14 10:36:00;;;;;;;;;;;;;;;8.07;89.94;101030.91;6160370;23;19971;-85
2021/12/14 10:38:35;;;;;;;;;;;;;;;8.09;89.96;101018.34;6185692;23;19908;-85
2021/12/14 10:43:57;;;;;;;;;;;;;;;8.15;90.00;101017.09;6183286;23;19915;-85
2021/12/14 10:46:23;;;;;;;;;;;;;;;8.12;89.92;101020.81;6188052;23;19908;-84
2021/12/14 10:48:49;;;;;;;;;;;;;;;8.14;89.99;101018.91;6163190;23;19948;-84
2021/12/14 10:51:16;;;;;;;;;;;;;;;8.14;89.73;101013.59;6162799;23;19916;-85
2021/12/14 10:53:43;;;;;;;;;;;;;;;8.13;89.59;101017.22;6162246;23;20011;-85
2021/12/14 10:56:12;;;;;;;;;;;;;;;8.14;90.11;101015.41;6162569;23;19904;-85
2021/12/14 10:58:38;;;;;;;;;;;;;;;8.16;89.99;101017.00;6160920;23;20312;-85
2021/12/14 11:01:08;;;;;;;;;;;;;;;8.19;89.98;101021.28;6162430;23;19912;-85
2021/12/14 11:03:35;;;;;;;;;;;;;;;8.20;90.05;101015.88;6186892;23;19935;-85
2021/12/14 11:06:02;;;;;;;;;;;;;;;8.18;89.99;101016.91;6162082;23;19949;-85
2021/12/14 11:08:43;;;;;;;;;;;;;;;8.20;90.11;101015.00;6162038;23;19995;-85
2021/12/14 11:11:14;;;;;;;;;;;;;;;8.21;90.11;101014.91;6184322;23;19935;-85
2021/12/14 11:13:41;;;;;;;;;;;;;;;8.23;89.93;101011.28;6162392;23;19914;-85
2021/12/14 11:16:14;;;;;;;;;;;;;;;8.27;89.80;101012.81;6162365;23;19912;-85
2021/12/14 11:18:39;;;;;;;;;;;;;;;8.27;89.97;101005.69;6162517;23;19908;-85
2021/12/14 11:21:12;;;;;;;;;;;;;;;8.30;89.85;100999.28;6162150;23;19969;-85
2021/12/14 11:23:40;;;;;;;;;;;;;;;8.28;89.99;101004.72;6161525;23;19905;-85
2021/12/14 11:26:08;;;;;;;;;;;;;;;8.30;89.98;101010.81;6162430;23;19905;-85
2021/12/14 11:28:35;;;;;;;;;;;;;;;8.28;89.89;101002.06;6163749;23;20750;-85
2021/12/14 11:31:19;;;;;;;;;;;;;;;8.31;90.07;101004.53;6187597;23;19909;-85
2021/12/14 11:33:50;;;;;;;;;;;;;;;8.29;89.97;100998.44;6162134;23;20712;-85
2021/12/14 11:36:31;;;;;;;;;;;;;;;8.29;89.98;100994.91;6163661;23;19913;-85
2021/12/14 11:39:05;;;;;;;;;;;;;;;8.31;90.19;100996.53;6164100;23;20448;-84
2021/12/14 11:41:33;;;;;;;;;;;;;;;8.31;90.02;100985.00;6164325;23;19913;-85
2021/12/14 11:44:00;;;;;;;;;;;;;;;8.32;90.09;100994.72;6164047;23;19908;-84
2021/12/14 11:46:28;;;;;;;;;;;;;;;8.34;90.02;100983.03;6164242;23;19927;-84
2021/12/14 11:48:54;;;;;;;;;;;;;;;8.35;90.24;100991.88;6188176;23;19904;-84
2021/12/14 11:51:19;;;;;;;;;;;;;;;8.36;90.18;100983.78;6164051;23;19939;-85
2021/12/14 11:53:49;;;;;;;;;;;;;;;8.38;90.29;100989.88;6163518;23;19905;-85
2021/12/14 11:56:16;;;;;;;;;;;;;;;8.38;90.27;100984.56;6164126;23;20511;-84
2021/12/14 11:58:43;;;;;;;;;;;;;;;8.39;90.10;100986.25;6164130;23;19967;-84
2021/12/14 12:01:17;;;;;;;;;;;;;;;8.40;90.41;100987.13;6164357;23;19969;-85
2021/12/14 12:03:46;;;;;;;;;;;;;;;8.42;90.35;100983.41;6164358;23;19948;-84
2021/12/14 12:06:31;;;;;;;;;;;;;;;8.43;90.40;100986.91;6164280;23;19908;-85
2021/12/14 12:11:43;;;;;;;;;;;;;;;8.40;90.39;100979.97;6185920;23;19932;-85
2021/12/14 12:14:38;;;;;;;;;;;;;;;8.39;90.50;100983.59;6163903;23;19908;-85
2021/12/14 12:17:23;;;;;;;;;;;;;;;8.40;90.60;100987.13;6164215;23;19967;-85
2021/12/14 12:19:53;;;;;;;;;;;;;;;8.38;90.34;100986.38;6164345;23;19909;-85
2021/12/14 12:22:18;;;;;;;;;;;;;;;8.40;90.61;100987.13;6163979;23;19935;-85
2021/12/14 12:24:49;;;;;;;;;;;;;;;8.39;90.44;100991.59;6189076;23;19917;-85
2021/12/14 12:27:14;;;;;;;;;;;;;;;8.40;90.53;100984.44;6164297;23;20343;-85
2021/12/14 12:29:40;;;;;;;;;;;;;;;8.42;90.83;100986.06;6163579;23;19952;-85
2021/12/14 12:32:16;;;;;;;;;;;;;;;8.43;90.31;100982.44;6164038;23;19953;-84
2021/12/14 12:34:43;;;;;;;;;;;;;;;8.45;90.64;100977.88;6164057;23;19932;-84
2021/12/14 12:37:11;;;;;;;;;;;;;;;8.45;90.61;100977.88;6188425;23;19954;-84
2021/12/14 12:39:36;;;;;;;;;;;;;;;8.46;90.51;100971.59;6162607;23;19995;-84
2021/12/14 12:42:04;;;;;;;;;;;;;;;8.48;90.63;100975.00;6188537;23;19971;-84
2021/12/14 12:44:30;;;;;;;;;;;;;;;8.47;90.72;100970.63;6162840;23;19908;-84
2021/12/14 12:47:12;;;;;;;;;;;;;;;8.47;90.50;100959.97;6163311;23;19942;-85
2021/12/14 12:49:39;;;;;;;;;;;;;;;8.50;90.84;100967.75;6188279;23;19908;-84
2021/12/14 12:52:04;;;;;;;;;;;;;;;8.51;90.44;100955.28;6163000;23;19939;-84
2021/12/14 12:54:48;;;;;;;;;;;;;;;8.53;90.46;100953.41;6162081;23;19962;-84
2021/12/14 12:57:15;;;;;;;;;;;;;;;8.57;90.38;100954.06;6162862;23;19952;-84
2021/12/14 12:59:41;;;;;;;;;;;;;;;8.57;90.60;100967.38;6163130;23;20292;-84
2021/12/14 13:02:13;;;;;;;;;;;;;;;8.57;90.38;100962.91;6164261;23;19915;-84
2021/12/14 13:04:39;;;;;;;;;;;;;;;8.57;90.46;100964.72;6162562;23;19908;-84
2021/12/14 13:07:05;;;;;;;;;;;;;;;8.57;90.58;100972.72;6163464;23;19974;-84
2021/12/14 13:09:30;;;;;;;;;;;;;;;8.57;90.31;100967.38;6162970;23;19987;-84
2021/12/14 13:11:56;;;;;;;;;;;;;;;8.59;90.69;100968.16;6161665;23;19912;-84
2021/12/14 13:14:21;;;;;;;;;;;;;;;8.60;90.51;100965.38;6161647;23;19916;-84
2021/12/14 13:16:50;;;;;;;;;;;;;;;8.60;90.57;100969.84;6162212;23;19916;-84
2021/12/14 13:19:22;;;;;;;;;;;;;;;8.59;90.85;100974.34;6186819;23;19943;-84
2021/12/14 13:21:57;;;;;;;;;;;;;;;8.60;90.63;100972.53;6163608;23;19905;-84
2021/12/14 13:24:33;;;;;;;;;;;;;;;8.59;90.72;100977.00;6187596;23;19908;-84
2021/12/14 13:27:07;;;;;;;;;;;;;;;8.57;90.79;100978.91;6188615;23;19932;-84